sensor_id;sensor_type;location;lat;lon;timestamp;P1;durP1;ratioP1;P2;durP2;ratioP2
67514;SDS011;60646;55.802;37.032;2023-12-07T00:00:07;17.25;;;6.60;;
67514;SDS011;60646;55.802;37.032;2023-12-07T00:02:33;19.75;;;5.88;;
67514;SDS011;60646;55.802;37.032;2023-12-07T00:04:59;16.83;;;6.72;;
67514;SDS011;60646;55.802;37.032;2023-12-07T00:07:25;17.05;;;6.03;;
67514;SDS011;60646;55.802;37.032;2023-12-07T00:09:51;19.23;;;7.28;;
67514;SDS011;60646;55.802;37.032;2023-12-07T00:12:35;17.50;;;5.95;;
67514;SDS011;60646;55.802;37.032;2023-12-07T00:15:01;14.52;;;5.97;;
67514;SDS011;60646;55.802;37.032;2023-12-07T00:17:30;20.67;;;6.93;;
67514;SDS011;60646;55.802;37.032;2023-12-07T00:19:56;19.27;;;6.45;;
67514;SDS011;60646;55.802;37.032;2023-12-07T00:22:21;21.80;;;7.68;;
67514;SDS011;60646;55.802;37.032;2023-12-07T00:24:49;20.27;;;7.03;;
67514;SDS011;60646;55.802;37.032;2023-12-07T00:27:15;20.80;;;6.88;;
67514;SDS011;60646;55.802;37.032;2023-12-07T00:29:41;21.92;;;7.13;;
67514;SDS011;60646;55.802;37.032;2023-12-07T00:32:07;16.42;;;6.25;;
67514;SDS011;60646;55.802;37.032;2023-12-07T00:34:33;20.55;;;7.13;;
67514;SDS011;60646;55.802;37.032;2023-12-07T00:36:58;14.32;;;5.70;;
67514;SDS011;60646;55.802;37.032;2023-12-07T00:39:24;16.15;;;6.03;;
67514;SDS011;60646;55.802;37.032;2023-12-07T00:41:50;16.08;;;6.00;;
67514;SDS011;60646;55.802;37.032;2023-12-07T00:44:16;13.60;;;5.63;;
67514;SDS011;60646;55.802;37.032;2023-12-07T00:46:42;16.50;;;6.63;;
67514;SDS011;60646;55.802;37.032;2023-12-07T00:49:07;19.45;;;6.30;;
67514;SDS011;60646;55.802;37.032;2023-12-07T00:51:33;12.88;;;5.75;;
67514;SDS011;60646;55.802;37.032;2023-12-07T00:53:59;16.25;;;6.07;;
67514;SDS011;60646;55.802;37.032;2023-12-07T00:56:25;14.55;;;6.18;;
67514;SDS011;60646;55.802;37.032;2023-12-07T00:58:50;17.67;;;6.22;;
67514;SDS011;60646;55.802;37.032;2023-12-07T01:01:16;14.10;;;5.03;;
67514;SDS011;60646;55.802;37.032;2023-12-07T01:03:43;14.13;;;5.55;;
67514;SDS011;60646;55.802;37.032;2023-12-07T01:06:08;12.70;;;5.03;;
67514;SDS011;60646;55.802;37.032;2023-12-07T01:08:36;11.88;;;5.18;;
67514;SDS011;60646;55.802;37.032;2023-12-07T01:11:03;13.20;;;5.00;;
67514;SDS011;60646;55.802;37.032;2023-12-07T01:13:30;12.93;;;5.63;;
67514;SDS011;60646;55.802;37.032;2023-12-07T01:15:56;14.13;;;5.65;;
67514;SDS011;60646;55.802;37.032;2023-12-07T01:18:22;16.75;;;5.80;;
67514;SDS011;60646;55.802;37.032;2023-12-07T01:20:47;13.90;;;5.10;;
67514;SDS011;60646;55.802;37.032;2023-12-07T01:23:32;15.93;;;5.63;;
67514;SDS011;60646;55.802;37.032;2023-12-07T01:25:58;14.02;;;5.40;;
67514;SDS011;60646;55.802;37.032;2023-12-07T01:28:27;11.35;;;4.68;;
67514;SDS011;60646;55.802;37.032;2023-12-07T01:30:53;13.40;;;5.70;;
67514;SDS011;60646;55.802;37.032;2023-12-07T01:33:20;14.57;;;5.15;;
67514;SDS011;60646;55.802;37.032;2023-12-07T01:35:47;14.50;;;5.40;;
67514;SDS011;60646;55.802;37.032;2023-12-07T01:38:13;13.93;;;5.10;;
67514;SDS011;60646;55.802;37.032;2023-12-07T01:40:39;14.32;;;5.32;;
67514;SDS011;60646;55.802;37.032;2023-12-07T01:43:04;13.77;;;5.55;;
67514;SDS011;60646;55.802;37.032;2023-12-07T01:45:30;14.95;;;5.22;;
67514;SDS011;60646;55.802;37.032;2023-12-07T01:47:56;13.35;;;4.90;;
67514;SDS011;60646;55.802;37.032;2023-12-07T01:50:24;12.70;;;5.18;;
67514;SDS011;60646;55.802;37.032;2023-12-07T01:52:52;14.90;;;5.25;;
67514;SDS011;60646;55.802;37.032;2023-12-07T01:55:22;13.45;;;5.22;;
67514;SDS011;60646;55.802;37.032;2023-12-07T01:57:48;17.02;;;5.60;;
67514;SDS011;60646;55.802;37.032;2023-12-07T02:00:15;12.93;;;5.18;;
67514;SDS011;60646;55.802;37.032;2023-12-07T02:02:43;13.35;;;5.60;;
67514;SDS011;60646;55.802;37.032;2023-12-07T02:05:10;13.00;;;5.30;;
67514;SDS011;60646;55.802;37.032;2023-12-07T02:07:39;12.15;;;5.07;;
67514;SDS011;60646;55.802;37.032;2023-12-07T02:10:06;13.25;;;5.00;;
67514;SDS011;60646;55.802;37.032;2023-12-07T02:12:33;13.75;;;5.55;;
67514;SDS011;60646;55.802;37.032;2023-12-07T02:15:00;11.82;;;4.80;;
67514;SDS011;60646;55.802;37.032;2023-12-07T02:17:38;14.88;;;5.68;;
67514;SDS011;60646;55.802;37.032;2023-12-07T02:20:21;11.02;;;5.05;;
67514;SDS011;60646;55.802;37.032;2023-12-07T02:22:52;16.08;;;5.07;;
67514;SDS011;60646;55.802;37.032;2023-12-07T02:25:22;10.45;;;4.47;;
67514;SDS011;60646;55.802;37.032;2023-12-07T02:27:49;10.30;;;4.60;;
67514;SDS011;60646;55.802;37.032;2023-12-07T02:30:15;11.70;;;4.47;;
67514;SDS011;60646;55.802;37.032;2023-12-07T02:32:42;16.15;;;4.72;;
67514;SDS011;60646;55.802;37.032;2023-12-07T02:35:10;12.07;;;5.07;;
67514;SDS011;60646;55.802;37.032;2023-12-07T02:37:46;10.65;;;4.18;;
67514;SDS011;60646;55.802;37.032;2023-12-07T02:40:23;13.05;;;4.32;;
67514;SDS011;60646;55.802;37.032;2023-12-07T02:42:51;9.88;;;4.13;;
67514;SDS011;60646;55.802;37.032;2023-12-07T02:45:18;13.30;;;4.00;;
67514;SDS011;60646;55.802;37.032;2023-12-07T02:47:44;11.45;;;4.30;;
67514;SDS011;60646;55.802;37.032;2023-12-07T02:50:11;12.68;;;4.70;;
67514;SDS011;60646;55.802;37.032;2023-12-07T02:52:37;9.73;;;3.90;;
67514;SDS011;60646;55.802;37.032;2023-12-07T02:55:03;10.20;;;4.07;;
67514;SDS011;60646;55.802;37.032;2023-12-07T02:57:30;11.93;;;4.60;;
67514;SDS011;60646;55.802;37.032;2023-12-07T02:59:59;8.70;;;4.25;;
67514;SDS011;60646;55.802;37.032;2023-12-07T03:02:25;10.73;;;4.57;;
67514;SDS011;60646;55.802;37.032;2023-12-07T03:04:51;8.02;;;3.63;;
67514;SDS011;60646;55.802;37.032;2023-12-07T03:07:17;10.68;;;4.45;;
67514;SDS011;60646;55.802;37.032;2023-12-07T03:09:43;8.35;;;3.80;;
67514;SDS011;60646;55.802;37.032;2023-12-07T03:12:09;10.88;;;4.10;;
67514;SDS011;60646;55.802;37.032;2023-12-07T03:14:35;8.88;;;3.60;;
67514;SDS011;60646;55.802;37.032;2023-12-07T03:17:00;8.32;;;3.45;;
67514;SDS011;60646;55.802;37.032;2023-12-07T03:19:26;10.85;;;3.97;;
67514;SDS011;60646;55.802;37.032;2023-12-07T03:21:52;12.10;;;3.95;;
67514;SDS011;60646;55.802;37.032;2023-12-07T03:24:18;12.27;;;4.30;;
67514;SDS011;60646;55.802;37.032;2023-12-07T03:26:43;7.82;;;3.42;;
67514;SDS011;60646;55.802;37.032;2023-12-07T03:29:09;9.23;;;4.20;;
67514;SDS011;60646;55.802;37.032;2023-12-07T03:31:35;9.45;;;4.50;;
67514;SDS011;60646;55.802;37.032;2023-12-07T03:34:01;8.65;;;3.95;;
67514;SDS011;60646;55.802;37.032;2023-12-07T03:36:27;9.32;;;3.72;;
67514;SDS011;60646;55.802;37.032;2023-12-07T03:38:53;11.27;;;4.32;;
67514;SDS011;60646;55.802;37.032;2023-12-07T03:41:19;16.55;;;4.45;;
67514;SDS011;60646;55.802;37.032;2023-12-07T03:43:44;11.65;;;4.53;;
67514;SDS011;60646;55.802;37.032;2023-12-07T03:46:10;10.68;;;4.68;;
67514;SDS011;60646;55.802;37.032;2023-12-07T03:48:36;8.20;;;3.65;;
67514;SDS011;60646;55.802;37.032;2023-12-07T03:51:02;12.93;;;5.00;;
67514;SDS011;60646;55.802;37.032;2023-12-07T03:53:28;10.50;;;4.00;;
67514;SDS011;60646;55.802;37.032;2023-12-07T03:55:55;12.18;;;4.75;;
67514;SDS011;60646;55.802;37.032;2023-12-07T03:58:21;14.07;;;4.97;;
67514;SDS011;60646;55.802;37.032;2023-12-07T04:00:46;10.38;;;4.65;;
67514;SDS011;60646;55.802;37.032;2023-12-07T04:03:12;10.82;;;4.35;;
67514;SDS011;60646;55.802;37.032;2023-12-07T04:05:38;13.68;;;5.28;;
67514;SDS011;60646;55.802;37.032;2023-12-07T04:08:04;9.63;;;4.28;;
67514;SDS011;60646;55.802;37.032;2023-12-07T04:10:31;8.38;;;3.63;;
67514;SDS011;60646;55.802;37.032;2023-12-07T04:12:57;11.63;;;4.55;;
67514;SDS011;60646;55.802;37.032;2023-12-07T04:15:23;13.65;;;5.00;;
67514;SDS011;60646;55.802;37.032;2023-12-07T04:17:49;11.77;;;4.57;;
67514;SDS011;60646;55.802;37.032;2023-12-07T04:20:14;8.82;;;4.72;;
67514;SDS011;60646;55.802;37.032;2023-12-07T04:22:40;11.38;;;3.83;;
67514;SDS011;60646;55.802;37.032;2023-12-07T04:25:07;14.40;;;5.13;;
67514;SDS011;60646;55.802;37.032;2023-12-07T04:27:33;11.32;;;4.95;;
67514;SDS011;60646;55.802;37.032;2023-12-07T04:29:59;14.40;;;4.70;;
67514;SDS011;60646;55.802;37.032;2023-12-07T04:32:25;13.02;;;4.70;;
67514;SDS011;60646;55.802;37.032;2023-12-07T04:34:51;12.82;;;5.00;;
67514;SDS011;60646;55.802;37.032;2023-12-07T04:37:18;12.40;;;4.75;;
67514;SDS011;60646;55.802;37.032;2023-12-07T04:39:43;10.90;;;4.22;;
67514;SDS011;60646;55.802;37.032;2023-12-07T04:42:09;13.65;;;4.55;;
67514;SDS011;60646;55.802;37.032;2023-12-07T04:44:35;11.25;;;4.30;;
67514;SDS011;60646;55.802;37.032;2023-12-07T04:47:01;9.98;;;4.13;;
67514;SDS011;60646;55.802;37.032;2023-12-07T04:49:27;12.52;;;4.38;;
67514;SDS011;60646;55.802;37.032;2023-12-07T04:51:53;11.20;;;4.72;;
67514;SDS011;60646;55.802;37.032;2023-12-07T04:54:18;9.05;;;4.32;;
67514;SDS011;60646;55.802;37.032;2023-12-07T04:56:44;9.80;;;4.28;;
67514;SDS011;60646;55.802;37.032;2023-12-07T04:59:10;9.73;;;4.30;;
67514;SDS011;60646;55.802;37.032;2023-12-07T05:01:36;8.85;;;4.55;;
67514;SDS011;60646;55.802;37.032;2023-12-07T05:04:03;13.15;;;4.63;;
67514;SDS011;60646;55.802;37.032;2023-12-07T05:06:29;12.30;;;4.50;;
67514;SDS011;60646;55.802;37.032;2023-12-07T05:08:56;10.82;;;4.57;;
67514;SDS011;60646;55.802;37.032;2023-12-07T05:11:22;10.60;;;4.55;;
67514;SDS011;60646;55.802;37.032;2023-12-07T05:13:47;12.60;;;4.95;;
67514;SDS011;60646;55.802;37.032;2023-12-07T05:16:13;10.48;;;4.07;;
67514;SDS011;60646;55.802;37.032;2023-12-07T05:18:40;10.57;;;4.75;;
67514;SDS011;60646;55.802;37.032;2023-12-07T05:21:06;10.73;;;4.53;;
67514;SDS011;60646;55.802;37.032;2023-12-07T05:23:32;10.13;;;4.20;;
67514;SDS011;60646;55.802;37.032;2023-12-07T05:25:59;8.38;;;3.92;;
67514;SDS011;60646;55.802;37.032;2023-12-07T05:28:25;13.00;;;4.60;;
67514;SDS011;60646;55.802;37.032;2023-12-07T05:30:52;12.07;;;4.80;;
67514;SDS011;60646;55.802;37.032;2023-12-07T05:33:18;10.55;;;4.03;;
67514;SDS011;60646;55.802;37.032;2023-12-07T05:35:47;14.15;;;4.68;;
67514;SDS011;60646;55.802;37.032;2023-12-07T05:38:13;13.38;;;4.78;;
67514;SDS011;60646;55.802;37.032;2023-12-07T05:40:39;8.88;;;4.13;;
67514;SDS011;60646;55.802;37.032;2023-12-07T05:43:05;13.32;;;4.90;;
67514;SDS011;60646;55.802;37.032;2023-12-07T05:45:31;11.93;;;4.63;;
67514;SDS011;60646;55.802;37.032;2023-12-07T05:47:57;10.55;;;4.45;;
67514;SDS011;60646;55.802;37.032;2023-12-07T05:50:22;14.25;;;4.50;;
67514;SDS011;60646;55.802;37.032;2023-12-07T05:52:48;9.02;;;4.28;;
67514;SDS011;60646;55.802;37.032;2023-12-07T05:55:14;11.00;;;4.75;;
67514;SDS011;60646;55.802;37.032;2023-12-07T05:57:46;10.57;;;4.50;;
67514;SDS011;60646;55.802;37.032;2023-12-07T06:00:13;11.80;;;3.90;;
67514;SDS011;60646;55.802;37.032;2023-12-07T06:02:39;11.43;;;4.43;;
67514;SDS011;60646;55.802;37.032;2023-12-07T06:05:05;11.13;;;4.63;;
67514;SDS011;60646;55.802;37.032;2023-12-07T06:07:32;9.50;;;4.13;;
67514;SDS011;60646;55.802;37.032;2023-12-07T06:09:58;13.85;;;4.95;;
67514;SDS011;60646;55.802;37.032;2023-12-07T06:12:24;9.82;;;4.53;;
67514;SDS011;60646;55.802;37.032;2023-12-07T06:14:50;11.15;;;4.13;;
67514;SDS011;60646;55.802;37.032;2023-12-07T06:17:16;13.07;;;4.43;;
67514;SDS011;60646;55.802;37.032;2023-12-07T06:19:41;12.32;;;4.20;;
67514;SDS011;60646;55.802;37.032;2023-12-07T06:22:08;11.05;;;4.53;;
67514;SDS011;60646;55.802;37.032;2023-12-07T06:24:34;10.32;;;4.40;;
67514;SDS011;60646;55.802;37.032;2023-12-07T06:27:01;9.05;;;4.13;;
67514;SDS011;60646;55.802;37.032;2023-12-07T06:29:46;9.93;;;4.00;;
67514;SDS011;60646;55.802;37.032;2023-12-07T06:32:11;8.68;;;3.75;;
67514;SDS011;60646;55.802;37.032;2023-12-07T06:34:40;10.13;;;4.32;;
67514;SDS011;60646;55.802;37.032;2023-12-07T06:37:06;9.02;;;4.43;;
67514;SDS011;60646;55.802;37.032;2023-12-07T06:39:32;10.52;;;4.00;;
67514;SDS011;60646;55.802;37.032;2023-12-07T06:41:58;15.70;;;4.32;;
67514;SDS011;60646;55.802;37.032;2023-12-07T06:44:25;10.05;;;3.80;;
67514;SDS011;60646;55.802;37.032;2023-12-07T06:46:52;9.32;;;4.05;;
67514;SDS011;60646;55.802;37.032;2023-12-07T06:52:30;11.32;;;5.45;;
67514;SDS011;60646;55.802;37.032;2023-12-07T06:54:56;13.40;;;4.25;;
67514;SDS011;60646;55.802;37.032;2023-12-07T06:57:23;10.90;;;4.70;;
67514;SDS011;60646;55.802;37.032;2023-12-07T06:59:48;10.65;;;4.90;;
67514;SDS011;60646;55.802;37.032;2023-12-07T07:02:14;8.30;;;3.95;;
67514;SDS011;60646;55.802;37.032;2023-12-07T07:04:40;11.55;;;4.45;;
67514;SDS011;60646;55.802;37.032;2023-12-07T07:07:09;12.02;;;4.20;;
67514;SDS011;60646;55.802;37.032;2023-12-07T07:09:57;10.00;;;4.00;;
67514;SDS011;60646;55.802;37.032;2023-12-07T07:12:24;9.80;;;3.58;;
67514;SDS011;60646;55.802;37.032;2023-12-07T07:14:50;8.75;;;3.72;;
67514;SDS011;60646;55.802;37.032;2023-12-07T07:17:15;10.07;;;4.30;;
67514;SDS011;60646;55.802;37.032;2023-12-07T07:19:43;11.05;;;4.68;;
67514;SDS011;60646;55.802;37.032;2023-12-07T07:22:09;11.18;;;4.38;;
67514;SDS011;60646;55.802;37.032;2023-12-07T07:24:34;11.20;;;4.43;;
67514;SDS011;60646;55.802;37.032;2023-12-07T07:27:00;12.90;;;4.53;;
67514;SDS011;60646;55.802;37.032;2023-12-07T07:29:26;10.45;;;4.70;;
67514;SDS011;60646;55.802;37.032;2023-12-07T07:31:53;10.80;;;4.57;;
67514;SDS011;60646;55.802;37.032;2023-12-07T07:34:19;11.20;;;4.47;;
67514;SDS011;60646;55.802;37.032;2023-12-07T07:36:44;12.77;;;4.03;;
67514;SDS011;60646;55.802;37.032;2023-12-07T07:39:10;13.27;;;4.75;;
67514;SDS011;60646;55.802;37.032;2023-12-07T07:41:39;9.68;;;4.47;;
67514;SDS011;60646;55.802;37.032;2023-12-07T07:44:05;11.50;;;4.32;;
67514;SDS011;60646;55.802;37.032;2023-12-07T07:46:30;12.27;;;4.88;;
67514;SDS011;60646;55.802;37.032;2023-12-07T07:48:56;11.07;;;4.38;;
67514;SDS011;60646;55.802;37.032;2023-12-07T07:51:22;9.68;;;4.60;;
67514;SDS011;60646;55.802;37.032;2023-12-07T07:53:48;9.68;;;4.07;;
67514;SDS011;60646;55.802;37.032;2023-12-07T07:56:14;9.88;;;4.38;;
67514;SDS011;60646;55.802;37.032;2023-12-07T07:58:40;14.05;;;5.07;;
67514;SDS011;60646;55.802;37.032;2023-12-07T08:01:06;11.93;;;4.82;;
67514;SDS011;60646;55.802;37.032;2023-12-07T08:03:32;14.90;;;4.55;;
67514;SDS011;60646;55.802;37.032;2023-12-07T08:05:58;8.93;;;4.13;;
67514;SDS011;60646;55.802;37.032;2023-12-07T08:08:24;11.88;;;5.03;;
67514;SDS011;60646;55.802;37.032;2023-12-07T08:10:52;9.70;;;4.68;;
67514;SDS011;60646;55.802;37.032;2023-12-07T08:13:18;10.93;;;4.35;;
67514;SDS011;60646;55.802;37.032;2023-12-07T08:15:44;11.65;;;4.93;;
67514;SDS011;60646;55.802;37.032;2023-12-07T08:18:10;8.68;;;3.67;;
67514;SDS011;60646;55.802;37.032;2023-12-07T08:20:35;14.15;;;4.72;;
67514;SDS011;60646;55.802;37.032;2023-12-07T08:23:01;14.57;;;4.45;;
67514;SDS011;60646;55.802;37.032;2023-12-07T08:25:27;10.48;;;4.97;;
67514;SDS011;60646;55.802;37.032;2023-12-07T08:27:53;12.02;;;4.55;;
67514;SDS011;60646;55.802;37.032;2023-12-07T08:30:19;12.18;;;4.45;;
67514;SDS011;60646;55.802;37.032;2023-12-07T08:32:45;12.82;;;5.38;;
67514;SDS011;60646;55.802;37.032;2023-12-07T08:35:11;12.77;;;5.40;;
67514;SDS011;60646;55.802;37.032;2023-12-07T08:37:37;12.15;;;4.70;;
67514;SDS011;60646;55.802;37.032;2023-12-07T08:40:04;14.73;;;5.00;;
67514;SDS011;60646;55.802;37.032;2023-12-07T08:42:30;11.98;;;4.65;;
67514;SDS011;60646;55.802;37.032;2023-12-07T08:44:57;11.85;;;4.60;;
67514;SDS011;60646;55.802;37.032;2023-12-07T08:47:23;10.60;;;4.90;;
67514;SDS011;60646;55.802;37.032;2023-12-07T08:49:53;9.43;;;4.35;;
67514;SDS011;60646;55.802;37.032;2023-12-07T08:52:19;9.80;;;4.60;;
67514;SDS011;60646;55.802;37.032;2023-12-07T08:54:45;13.43;;;5.30;;
67514;SDS011;60646;55.802;37.032;2023-12-07T08:57:10;10.90;;;4.88;;
67514;SDS011;60646;55.802;37.032;2023-12-07T08:59:36;11.63;;;5.45;;
67514;SDS011;60646;55.802;37.032;2023-12-07T09:02:02;13.30;;;4.75;;
67514;SDS011;60646;55.802;37.032;2023-12-07T09:04:28;12.95;;;4.75;;
67514;SDS011;60646;55.802;37.032;2023-12-07T09:06:54;12.27;;;4.28;;
67514;SDS011;60646;55.802;37.032;2023-12-07T09:09:20;9.13;;;4.10;;
67514;SDS011;60646;55.802;37.032;2023-12-07T09:11:47;11.75;;;4.45;;
67514;SDS011;60646;55.802;37.032;2023-12-07T09:14:13;11.73;;;4.60;;
67514;SDS011;60646;55.802;37.032;2023-12-07T09:16:45;14.13;;;6.00;;
67514;SDS011;60646;55.802;37.032;2023-12-07T09:21:38;7.70;;;4.03;;
67514;SDS011;60646;55.802;37.032;2023-12-07T09:24:04;12.00;;;4.88;;
67514;SDS011;60646;55.802;37.032;2023-12-07T09:26:32;12.20;;;4.57;;
67514;SDS011;60646;55.802;37.032;2023-12-07T09:28:58;13.32;;;5.00;;
67514;SDS011;60646;55.802;37.032;2023-12-07T09:31:24;17.10;;;5.70;;
67514;SDS011;60646;55.802;37.032;2023-12-07T09:33:50;12.40;;;5.25;;
67514;SDS011;60646;55.802;37.032;2023-12-07T09:36:18;13.13;;;5.53;;
67514;SDS011;60646;55.802;37.032;2023-12-07T09:38:44;13.35;;;4.90;;
67514;SDS011;60646;55.802;37.032;2023-12-07T09:41:29;11.25;;;4.25;;
67514;SDS011;60646;55.802;37.032;2023-12-07T09:43:55;10.02;;;4.07;;
67514;SDS011;60646;55.802;37.032;2023-12-07T09:46:21;9.82;;;4.25;;
67514;SDS011;60646;55.802;37.032;2023-12-07T09:48:47;13.38;;;4.57;;
67514;SDS011;60646;55.802;37.032;2023-12-07T09:51:15;13.57;;;4.72;;
67514;SDS011;60646;55.802;37.032;2023-12-07T09:53:42;9.73;;;4.53;;
67514;SDS011;60646;55.802;37.032;2023-12-07T09:56:09;11.13;;;4.65;;
67514;SDS011;60646;55.802;37.032;2023-12-07T09:58:36;8.20;;;4.25;;
67514;SDS011;60646;55.802;37.032;2023-12-07T10:01:02;10.63;;;4.47;;
67514;SDS011;60646;55.802;37.032;2023-12-07T10:03:28;9.73;;;4.72;;
67514;SDS011;60646;55.802;37.032;2023-12-07T10:05:56;11.35;;;4.68;;
67514;SDS011;60646;55.802;37.032;2023-12-07T10:08:29;12.55;;;4.97;;
67514;SDS011;60646;55.802;37.032;2023-12-07T10:11:07;12.68;;;4.65;;
67514;SDS011;60646;55.802;37.032;2023-12-07T10:13:35;11.25;;;4.60;;
67514;SDS011;60646;55.802;37.032;2023-12-07T10:16:20;13.40;;;4.80;;
67514;SDS011;60646;55.802;37.032;2023-12-07T10:18:45;12.73;;;5.10;;
67514;SDS011;60646;55.802;37.032;2023-12-07T10:21:12;13.40;;;5.55;;
67514;SDS011;60646;55.802;37.032;2023-12-07T10:23:38;13.00;;;5.60;;
67514;SDS011;60646;55.802;37.032;2023-12-07T10:26:06;12.73;;;5.07;;
67514;SDS011;60646;55.802;37.032;2023-12-07T10:28:35;11.07;;;5.10;;
67514;SDS011;60646;55.802;37.032;2023-12-07T10:31:08;12.20;;;5.60;;
67514;SDS011;60646;55.802;37.032;2023-12-07T10:33:35;13.93;;;5.47;;
67514;SDS011;60646;55.802;37.032;2023-12-07T10:36:02;13.77;;;5.75;;
67514;SDS011;60646;55.802;37.032;2023-12-07T10:38:29;13.40;;;6.10;;
67514;SDS011;60646;55.802;37.032;2023-12-07T10:41:04;13.55;;;5.63;;
67514;SDS011;60646;55.802;37.032;2023-12-07T10:43:35;11.80;;;4.63;;
67514;SDS011;60646;55.802;37.032;2023-12-07T10:46:04;14.45;;;5.22;;
67514;SDS011;60646;55.802;37.032;2023-12-07T10:48:31;14.27;;;5.80;;
67514;SDS011;60646;55.802;37.032;2023-12-07T10:50:58;15.00;;;5.80;;
67514;SDS011;60646;55.802;37.032;2023-12-07T10:53:29;12.63;;;5.40;;
67514;SDS011;60646;55.802;37.032;2023-12-07T10:56:06;10.75;;;4.75;;
67514;SDS011;60646;55.802;37.032;2023-12-07T10:58:37;12.65;;;5.88;;
67514;SDS011;60646;55.802;37.032;2023-12-07T11:01:04;13.32;;;5.88;;
67514;SDS011;60646;55.802;37.032;2023-12-07T11:03:33;12.85;;;4.85;;
67514;SDS011;60646;55.802;37.032;2023-12-07T11:05:59;17.58;;;5.57;;
67514;SDS011;60646;55.802;37.032;2023-12-07T11:08:28;12.82;;;5.40;;
67514;SDS011;60646;55.802;37.032;2023-12-07T11:10:59;15.77;;;4.93;;
67514;SDS011;60646;55.802;37.032;2023-12-07T11:13:36;11.68;;;4.88;;
67514;SDS011;60646;55.802;37.032;2023-12-07T11:16:03;11.68;;;4.88;;
67514;SDS011;60646;55.802;37.032;2023-12-07T11:18:30;12.95;;;4.85;;
67514;SDS011;60646;55.802;37.032;2023-12-07T11:20:56;12.05;;;4.43;;
67514;SDS011;60646;55.802;37.032;2023-12-07T11:23:23;13.02;;;5.57;;
67514;SDS011;60646;55.802;37.032;2023-12-07T11:25:49;11.65;;;4.35;;
67514;SDS011;60646;55.802;37.032;2023-12-07T11:28:17;11.95;;;5.07;;
67514;SDS011;60646;55.802;37.032;2023-12-07T11:30:46;10.82;;;5.47;;
67514;SDS011;60646;55.802;37.032;2023-12-07T11:33:14;12.02;;;5.18;;
67514;SDS011;60646;55.802;37.032;2023-12-07T11:38:26;15.23;;;5.38;;
67514;SDS011;60646;55.802;37.032;2023-12-07T11:40:52;12.90;;;6.00;;
67514;SDS011;60646;55.802;37.032;2023-12-07T11:43:31;15.73;;;6.47;;
67514;SDS011;60646;55.802;37.032;2023-12-07T11:46:04;17.10;;;7.10;;
67514;SDS011;60646;55.802;37.032;2023-12-07T11:48:29;16.88;;;6.25;;
67514;SDS011;60646;55.802;37.032;2023-12-07T11:50:59;11.93;;;6.45;;
67514;SDS011;60646;55.802;37.032;2023-12-07T11:53:27;13.95;;;5.88;;
67514;SDS011;60646;55.802;37.032;2023-12-07T11:56:03;15.20;;;6.03;;
67514;SDS011;60646;55.802;37.032;2023-12-07T11:58:31;12.10;;;6.63;;
67514;SDS011;60646;55.802;37.032;2023-12-07T12:01:00;16.52;;;6.80;;
67514;SDS011;60646;55.802;37.032;2023-12-07T12:03:27;13.52;;;6.75;;
67514;SDS011;60646;55.802;37.032;2023-12-07T12:05:53;14.35;;;7.47;;
67514;SDS011;60646;55.802;37.032;2023-12-07T12:08:20;17.65;;;7.22;;
67514;SDS011;60646;55.802;37.032;2023-12-07T12:10:46;16.58;;;7.35;;
67514;SDS011;60646;55.802;37.032;2023-12-07T12:13:15;16.45;;;7.30;;
67514;SDS011;60646;55.802;37.032;2023-12-07T12:15:41;15.88;;;6.72;;
67514;SDS011;60646;55.802;37.032;2023-12-07T12:18:09;16.10;;;6.28;;
67514;SDS011;60646;55.802;37.032;2023-12-07T12:20:35;13.55;;;6.18;;
67514;SDS011;60646;55.802;37.032;2023-12-07T12:23:01;17.33;;;5.72;;
67514;SDS011;60646;55.802;37.032;2023-12-07T12:25:28;13.88;;;5.28;;
67514;SDS011;60646;55.802;37.032;2023-12-07T12:27:56;13.60;;;4.70;;
67514;SDS011;60646;55.802;37.032;2023-12-07T12:30:29;11.32;;;4.70;;
67514;SDS011;60646;55.802;37.032;2023-12-07T12:32:56;12.02;;;4.60;;
67514;SDS011;60646;55.802;37.032;2023-12-07T12:35:22;12.00;;;5.22;;
67514;SDS011;60646;55.802;37.032;2023-12-07T12:37:49;15.32;;;5.20;;
67514;SDS011;60646;55.802;37.032;2023-12-07T12:40:16;12.95;;;5.28;;
67514;SDS011;60646;55.802;37.032;2023-12-07T12:43:02;10.60;;;4.32;;
67514;SDS011;60646;55.802;37.032;2023-12-07T12:45:28;13.00;;;4.55;;
67514;SDS011;60646;55.802;37.032;2023-12-07T12:48:12;8.38;;;3.90;;
67514;SDS011;60646;55.802;37.032;2023-12-07T12:50:39;10.13;;;4.55;;
67514;SDS011;60646;55.802;37.032;2023-12-07T12:53:07;10.82;;;4.45;;
67514;SDS011;60646;55.802;37.032;2023-12-07T12:55:39;11.68;;;4.22;;
67514;SDS011;60646;55.802;37.032;2023-12-07T12:58:06;12.23;;;4.43;;
67514;SDS011;60646;55.802;37.032;2023-12-07T13:00:34;15.23;;;4.93;;
67514;SDS011;60646;55.802;37.032;2023-12-07T13:03:03;9.45;;;3.88;;
67514;SDS011;60646;55.802;37.032;2023-12-07T13:05:30;12.63;;;5.78;;
67514;SDS011;60646;55.802;37.032;2023-12-07T13:08:01;15.07;;;5.45;;
67514;SDS011;60646;55.802;37.032;2023-12-07T13:10:27;9.68;;;4.28;;
67514;SDS011;60646;55.802;37.032;2023-12-07T13:12:54;12.35;;;4.00;;
67514;SDS011;60646;55.802;37.032;2023-12-07T13:15:22;15.90;;;5.25;;
67514;SDS011;60646;55.802;37.032;2023-12-07T13:17:48;8.77;;;4.13;;
67514;SDS011;60646;55.802;37.032;2023-12-07T13:20:15;11.43;;;4.65;;
67514;SDS011;60646;55.802;37.032;2023-12-07T13:22:41;8.48;;;3.65;;
67514;SDS011;60646;55.802;37.032;2023-12-07T13:25:12;8.30;;;3.75;;
67514;SDS011;60646;55.802;37.032;2023-12-07T13:27:41;9.93;;;4.38;;
67514;SDS011;60646;55.802;37.032;2023-12-07T13:30:09;12.23;;;5.05;;
67514;SDS011;60646;55.802;37.032;2023-12-07T13:32:36;12.35;;;4.55;;
67514;SDS011;60646;55.802;37.032;2023-12-07T13:35:03;7.82;;;4.47;;
67514;SDS011;60646;55.802;37.032;2023-12-07T13:37:31;11.30;;;4.72;;
67514;SDS011;60646;55.802;37.032;2023-12-07T13:39:58;12.57;;;4.07;;
67514;SDS011;60646;55.802;37.032;2023-12-07T13:42:26;13.65;;;4.53;;
67514;SDS011;60646;55.802;37.032;2023-12-07T13:44:54;11.15;;;4.85;;
67514;SDS011;60646;55.802;37.032;2023-12-07T13:47:24;13.05;;;5.20;;
67514;SDS011;60646;55.802;37.032;2023-12-07T13:50:03;13.55;;;4.82;;
67514;SDS011;60646;55.802;37.032;2023-12-07T13:52:31;13.43;;;6.47;;
67514;SDS011;60646;55.802;37.032;2023-12-07T13:54:58;14.10;;;6.10;;
67514;SDS011;60646;55.802;37.032;2023-12-07T13:57:24;8.65;;;5.00;;
67514;SDS011;60646;55.802;37.032;2023-12-07T13:59:50;12.32;;;5.38;;
67514;SDS011;60646;55.802;37.032;2023-12-07T14:02:17;17.30;;;6.43;;
67514;SDS011;60646;55.802;37.032;2023-12-07T14:04:44;13.60;;;6.68;;
67514;SDS011;60646;55.802;37.032;2023-12-07T14:07:12;10.38;;;6.07;;
67514;SDS011;60646;55.802;37.032;2023-12-07T14:09:41;12.70;;;6.32;;
67514;SDS011;60646;55.802;37.032;2023-12-07T14:12:12;15.10;;;7.35;;
67514;SDS011;60646;55.802;37.032;2023-12-07T14:14:45;13.38;;;6.60;;
67514;SDS011;60646;55.802;37.032;2023-12-07T14:17:13;17.77;;;7.80;;
67514;SDS011;60646;55.802;37.032;2023-12-07T14:19:40;14.30;;;6.32;;
67514;SDS011;60646;55.802;37.032;2023-12-07T14:22:07;12.23;;;5.95;;
67514;SDS011;60646;55.802;37.032;2023-12-07T14:24:36;15.25;;;5.90;;
67514;SDS011;60646;55.802;37.032;2023-12-07T14:27:02;13.18;;;5.97;;
67514;SDS011;60646;55.802;37.032;2023-12-07T14:29:32;14.77;;;6.68;;
67514;SDS011;60646;55.802;37.032;2023-12-07T14:31:58;14.68;;;6.82;;